sensor_id;sensor_type;location;lat;lon;timestamp;P1;durP1;ratioP1;P2;durP2;ratioP2
9481;SDS011;4779;48.062;11.672;2023-09-18T00:01:36;4.03;;;3.72;;
9481;SDS011;4779;48.062;11.672;2023-09-18T00:04:04;3.53;;;3.22;;
9481;SDS011;4779;48.062;11.672;2023-09-18T00:06:32;3.97;;;3.65;;
9481;SDS011;4779;48.062;11.672;2023-09-18T00:08:59;3.60;;;3.30;;
9481;SDS011;4779;48.062;11.672;2023-09-18T00:11:26;4.18;;;3.65;;
9481;SDS011;4779;48.062;11.672;2023-09-18T00:13:53;4.03;;;3.72;;
9481;SDS011;4779;48.062;11.672;2023-09-18T00:16:21;4.60;;;3.60;;
9481;SDS011;4779;48.062;11.672;2023-09-18T00:18:52;3.85;;;3.53;;
9481;SDS011;4779;48.062;11.672;2023-09-18T00:21:19;4.43;;;3.75;;
9481;SDS011;4779;48.062;11.672;2023-09-18T00:23:46;3.50;;;3.20;;
9481;SDS011;4779;48.062;11.672;2023-09-18T00:26:13;3.70;;;3.33;;
9481;SDS011;4779;48.062;11.672;2023-09-18T00:28:40;3.80;;;3.50;;
9481;SDS011;4779;48.062;11.672;2023-09-18T00:31:07;3.80;;;3.50;;
9481;SDS011;4779;48.062;11.672;2023-09-18T00:33:36;4.50;;;3.45;;
9481;SDS011;4779;48.062;11.672;2023-09-18T00:36:03;3.67;;;3.38;;
9481;SDS011;4779;48.062;11.672;2023-09-18T00:38:31;3.65;;;3.35;;
9481;SDS011;4779;48.062;11.672;2023-09-18T00:40:58;3.63;;;3.33;;
9481;SDS011;4779;48.062;11.672;2023-09-18T00:43:25;3.38;;;3.13;;
9481;SDS011;4779;48.062;11.672;2023-09-18T00:45:52;3.78;;;3.47;;
9481;SDS011;4779;48.062;11.672;2023-09-18T00:48:19;3.60;;;3.30;;
9481;SDS011;4779;48.062;11.672;2023-09-18T00:50:47;3.90;;;3.10;;
9481;SDS011;4779;48.062;11.672;2023-09-18T00:53:15;3.35;;;2.88;;
9481;SDS011;4779;48.062;11.672;2023-09-18T00:55:46;3.45;;;3.15;;
9481;SDS011;4779;48.062;11.672;2023-09-18T00:58:13;3.90;;;3.05;;
9481;SDS011;4779;48.062;11.672;2023-09-18T01:00:41;4.43;;;2.95;;
9481;SDS011;4779;48.062;11.672;2023-09-18T01:03:09;3.72;;;3.08;;
9481;SDS011;4779;48.062;11.672;2023-09-18T01:05:36;3.40;;;3.10;;
9481;SDS011;4779;48.062;11.672;2023-09-18T01:08:05;3.40;;;3.08;;
9481;SDS011;4779;48.062;11.672;2023-09-18T01:10:34;3.10;;;2.75;;
9481;SDS011;4779;48.062;11.672;2023-09-18T01:13:08;3.20;;;2.90;;
9481;SDS011;4779;48.062;11.672;2023-09-18T01:15:42;4.47;;;3.00;;
9481;SDS011;4779;48.062;11.672;2023-09-18T01:18:12;3.78;;;2.95;;
9481;SDS011;4779;48.062;11.672;2023-09-18T01:20:43;3.13;;;2.83;;
9481;SDS011;4779;48.062;11.672;2023-09-18T01:23:11;3.13;;;2.88;;
9481;SDS011;4779;48.062;11.672;2023-09-18T01:25:39;3.30;;;2.92;;
9481;SDS011;4779;48.062;11.672;2023-09-18T01:28:06;3.10;;;2.80;;
9481;SDS011;4779;48.062;11.672;2023-09-18T01:30:32;3.40;;;3.10;;
9481;SDS011;4779;48.062;11.672;2023-09-18T01:33:00;3.17;;;2.85;;
9481;SDS011;4779;48.062;11.672;2023-09-18T01:35:28;3.63;;;2.85;;
9481;SDS011;4779;48.062;11.672;2023-09-18T01:37:57;3.30;;;3.00;;
9481;SDS011;4779;48.062;11.672;2023-09-18T01:40:27;3.20;;;2.90;;
9481;SDS011;4779;48.062;11.672;2023-09-18T01:42:55;2.92;;;2.72;;
9481;SDS011;4779;48.062;11.672;2023-09-18T01:45:22;3.20;;;2.90;;
9481;SDS011;4779;48.062;11.672;2023-09-18T01:47:48;3.78;;;2.92;;
9481;SDS011;4779;48.062;11.672;2023-09-18T01:50:16;3.53;;;2.85;;
9481;SDS011;4779;48.062;11.672;2023-09-18T01:52:43;3.30;;;3.00;;
9481;SDS011;4779;48.062;11.672;2023-09-18T01:55:10;4.78;;;2.70;;
9481;SDS011;4779;48.062;11.672;2023-09-18T01:57:38;3.38;;;2.90;;
9481;SDS011;4779;48.062;11.672;2023-09-18T02:00:07;4.13;;;2.80;;
9481;SDS011;4779;48.062;11.672;2023-09-18T02:02:35;4.10;;;3.20;;
9481;SDS011;4779;48.062;11.672;2023-09-18T02:05:02;4.55;;;2.78;;
9481;SDS011;4779;48.062;11.672;2023-09-18T02:07:29;2.80;;;2.60;;
9481;SDS011;4779;48.062;11.672;2023-09-18T02:09:57;2.83;;;2.35;;
9481;SDS011;4779;48.062;11.672;2023-09-18T02:12:24;3.97;;;2.97;;
9481;SDS011;4779;48.062;11.672;2023-09-18T02:14:52;4.70;;;3.05;;
9481;SDS011;4779;48.062;11.672;2023-09-18T02:17:22;3.13;;;2.58;;
9481;SDS011;4779;48.062;11.672;2023-09-18T02:19:49;3.35;;;2.70;;
9481;SDS011;4779;48.062;11.672;2023-09-18T02:22:16;2.83;;;2.63;;
9481;SDS011;4779;48.062;11.672;2023-09-18T02:24:43;4.40;;;2.78;;
9481;SDS011;4779;48.062;11.672;2023-09-18T02:27:10;3.20;;;2.45;;
9481;SDS011;4779;48.062;11.672;2023-09-18T02:29:37;3.55;;;2.78;;
9481;SDS011;4779;48.062;11.672;2023-09-18T02:32:06;3.35;;;2.65;;
9481;SDS011;4779;48.062;11.672;2023-09-18T02:34:33;3.20;;;2.90;;
9481;SDS011;4779;48.062;11.672;2023-09-18T02:37:00;3.72;;;2.70;;
9481;SDS011;4779;48.062;11.672;2023-09-18T02:39:27;3.53;;;2.40;;
9481;SDS011;4779;48.062;11.672;2023-09-18T02:41:54;2.70;;;2.50;;
9481;SDS011;4779;48.062;11.672;2023-09-18T02:44:21;4.20;;;2.78;;
9481;SDS011;4779;48.062;11.672;2023-09-18T02:46:48;3.00;;;2.63;;
9481;SDS011;4779;48.062;11.672;2023-09-18T02:49:16;3.17;;;2.80;;
9481;SDS011;4779;48.062;11.672;2023-09-18T02:51:43;3.20;;;2.90;;
9481;SDS011;4779;48.062;11.672;2023-09-18T02:54:10;2.90;;;2.28;;
9481;SDS011;4779;48.062;11.672;2023-09-18T02:56:37;2.88;;;2.60;;
9481;SDS011;4779;48.062;11.672;2023-09-18T02:59:04;3.60;;;2.90;;
9481;SDS011;4779;48.062;11.672;2023-09-18T03:01:32;2.80;;;2.60;;
9481;SDS011;4779;48.062;11.672;2023-09-18T03:03:59;3.30;;;3.00;;
9481;SDS011;4779;48.062;11.672;2023-09-18T03:06:28;4.07;;;2.90;;
9481;SDS011;4779;48.062;11.672;2023-09-18T03:08:54;3.38;;;2.80;;
9481;SDS011;4779;48.062;11.672;2023-09-18T03:11:21;2.90;;;2.60;;
9481;SDS011;4779;48.062;11.672;2023-09-18T03:13:52;3.90;;;2.63;;
9481;SDS011;4779;48.062;11.672;2023-09-18T03:16:19;2.55;;;2.35;;
9481;SDS011;4779;48.062;11.672;2023-09-18T03:18:46;3.33;;;2.63;;
9481;SDS011;4779;48.062;11.672;2023-09-18T03:21:13;4.05;;;2.80;;
9481;SDS011;4779;48.062;11.672;2023-09-18T03:23:41;3.30;;;3.00;;
9481;SDS011;4779;48.062;11.672;2023-09-18T03:26:08;2.92;;;2.58;;
9481;SDS011;4779;48.062;11.672;2023-09-18T03:28:36;5.95;;;3.08;;
9481;SDS011;4779;48.062;11.672;2023-09-18T03:31:03;3.28;;;2.60;;
9481;SDS011;4779;48.062;11.672;2023-09-18T03:33:30;2.90;;;2.70;;
9481;SDS011;4779;48.062;11.672;2023-09-18T03:35:57;3.67;;;2.50;;
9481;SDS011;4779;48.062;11.672;2023-09-18T03:38:24;2.90;;;2.47;;
9481;SDS011;4779;48.062;11.672;2023-09-18T03:40:53;5.38;;;2.63;;
9481;SDS011;4779;48.062;11.672;2023-09-18T03:43:20;2.85;;;2.65;;
9481;SDS011;4779;48.062;11.672;2023-09-18T03:45:47;3.25;;;2.90;;
9481;SDS011;4779;48.062;11.672;2023-09-18T03:48:14;2.75;;;2.55;;
9481;SDS011;4779;48.062;11.672;2023-09-18T03:50:41;2.88;;;2.67;;
9481;SDS011;4779;48.062;11.672;2023-09-18T03:53:08;4.90;;;3.00;;
9481;SDS011;4779;48.062;11.672;2023-09-18T03:55:36;3.20;;;2.83;;
9481;SDS011;4779;48.062;11.672;2023-09-18T03:58:04;3.88;;;2.70;;
9481;SDS011;4779;48.062;11.672;2023-09-18T04:00:31;5.30;;;2.83;;
9481;SDS011;4779;48.062;11.672;2023-09-18T04:02:58;3.17;;;2.83;;
9481;SDS011;4779;48.062;11.672;2023-09-18T04:05:25;2.83;;;2.50;;
9481;SDS011;4779;48.062;11.672;2023-09-18T04:07:52;3.17;;;2.40;;
9481;SDS011;4779;48.062;11.672;2023-09-18T04:10:19;3.15;;;2.55;;
9481;SDS011;4779;48.062;11.672;2023-09-18T04:12:48;5.85;;;2.95;;
9481;SDS011;4779;48.062;11.672;2023-09-18T04:15:18;3.20;;;2.90;;
9481;SDS011;4779;48.062;11.672;2023-09-18T04:17:45;4.10;;;2.67;;
9481;SDS011;4779;48.062;11.672;2023-09-18T04:20:12;3.60;;;2.80;;
9481;SDS011;4779;48.062;11.672;2023-09-18T04:22:42;4.22;;;2.65;;
9481;SDS011;4779;48.062;11.672;2023-09-18T04:25:10;3.55;;;2.90;;
9481;SDS011;4779;48.062;11.672;2023-09-18T04:27:38;3.65;;;2.72;;
9481;SDS011;4779;48.062;11.672;2023-09-18T04:30:06;4.47;;;2.78;;
9481;SDS011;4779;48.062;11.672;2023-09-18T04:32:36;2.78;;;2.58;;
9481;SDS011;4779;48.062;11.672;2023-09-18T04:35:04;5.75;;;2.72;;
9481;SDS011;4779;48.062;11.672;2023-09-18T04:37:35;2.58;;;2.38;;
9481;SDS011;4779;48.062;11.672;2023-09-18T04:40:04;3.65;;;2.83;;
9481;SDS011;4779;48.062;11.672;2023-09-18T04:42:34;2.60;;;2.40;;
9481;SDS011;4779;48.062;11.672;2023-09-18T04:45:01;3.20;;;2.72;;
9481;SDS011;4779;48.062;11.672;2023-09-18T04:47:28;3.13;;;2.58;;
9481;SDS011;4779;48.062;11.672;2023-09-18T04:49:57;3.15;;;2.60;;
9481;SDS011;4779;48.062;11.672;2023-09-18T04:52:24;3.45;;;2.25;;
9481;SDS011;4779;48.062;11.672;2023-09-18T04:54:51;3.67;;;2.80;;
9481;SDS011;4779;48.062;11.672;2023-09-18T04:57:19;7.55;;;3.13;;
9481;SDS011;4779;48.062;11.672;2023-09-18T04:59:47;4.90;;;2.83;;
9481;SDS011;4779;48.062;11.672;2023-09-18T05:02:14;4.28;;;3.00;;
9481;SDS011;4779;48.062;11.672;2023-09-18T05:04:41;7.18;;;3.00;;
9481;SDS011;4779;48.062;11.672;2023-09-18T05:07:10;4.20;;;3.22;;
9481;SDS011;4779;48.062;11.672;2023-09-18T05:09:40;4.75;;;3.20;;
9481;SDS011;4779;48.062;11.672;2023-09-18T05:12:08;4.50;;;2.88;;
9481;SDS011;4779;48.062;11.672;2023-09-18T05:14:38;4.45;;;2.55;;
9481;SDS011;4779;48.062;11.672;2023-09-18T05:17:10;5.70;;;3.00;;
9481;SDS011;4779;48.062;11.672;2023-09-18T05:19:47;6.35;;;3.10;;
9481;SDS011;4779;48.062;11.672;2023-09-18T05:22:20;4.43;;;3.17;;
9481;SDS011;4779;48.062;11.672;2023-09-18T05:24:47;2.88;;;2.67;;
9481;SDS011;4779;48.062;11.672;2023-09-18T05:27:14;4.50;;;2.63;;
9481;SDS011;4779;48.062;11.672;2023-09-18T05:29:42;4.20;;;2.85;;
9481;SDS011;4779;48.062;11.672;2023-09-18T05:32:12;3.90;;;3.20;;
9481;SDS011;4779;48.062;11.672;2023-09-18T05:34:39;3.95;;;3.00;;
9481;SDS011;4779;48.062;11.672;2023-09-18T05:37:06;4.00;;;2.92;;
9481;SDS011;4779;48.062;11.672;2023-09-18T05:39:37;3.13;;;2.85;;
9481;SDS011;4779;48.062;11.672;2023-09-18T05:42:08;7.25;;;3.30;;
9481;SDS011;4779;48.062;11.672;2023-09-18T05:44:35;5.65;;;2.90;;
9481;SDS011;4779;48.062;11.672;2023-09-18T05:47:04;6.28;;;3.00;;
9481;SDS011;4779;48.062;11.672;2023-09-18T05:49:33;5.60;;;3.30;;
9481;SDS011;4779;48.062;11.672;2023-09-18T05:52:00;4.28;;;2.85;;
9481;SDS011;4779;48.062;11.672;2023-09-18T05:54:27;6.32;;;3.10;;
9481;SDS011;4779;48.062;11.672;2023-09-18T05:56:56;5.78;;;3.67;;
9481;SDS011;4779;48.062;11.672;2023-09-18T05:59:23;5.70;;;3.25;;
9481;SDS011;4779;48.062;11.672;2023-09-18T06:01:50;6.13;;;3.58;;
9481;SDS011;4779;48.062;11.672;2023-09-18T06:04:19;6.38;;;3.20;;
9481;SDS011;4779;48.062;11.672;2023-09-18T06:06:46;5.72;;;3.35;;
9481;SDS011;4779;48.062;11.672;2023-09-18T06:09:22;4.57;;;3.00;;
9481;SDS011;4779;48.062;11.672;2023-09-18T06:11:49;4.78;;;3.65;;
9481;SDS011;4779;48.062;11.672;2023-09-18T06:14:18;9.20;;;3.63;;
9481;SDS011;4779;48.062;11.672;2023-09-18T06:16:48;6.72;;;3.50;;
9481;SDS011;4779;48.062;11.672;2023-09-18T06:19:15;8.35;;;3.50;;
9481;SDS011;4779;48.062;11.672;2023-09-18T06:21:43;7.63;;;2.65;;
9481;SDS011;4779;48.062;11.672;2023-09-18T06:24:13;9.05;;;3.50;;
9481;SDS011;4779;48.062;11.672;2023-09-18T06:26:40;6.07;;;3.15;;
9481;SDS011;4779;48.062;11.672;2023-09-18T06:29:07;8.77;;;3.22;;
9481;SDS011;4779;48.062;11.672;2023-09-18T06:31:36;7.25;;;3.20;;
9481;SDS011;4779;48.062;11.672;2023-09-18T06:34:03;5.53;;;3.10;;
9481;SDS011;4779;48.062;11.672;2023-09-18T06:36:33;5.93;;;3.25;;
9481;SDS011;4779;48.062;11.672;2023-09-18T06:39:00;5.13;;;3.42;;
9481;SDS011;4779;48.062;11.672;2023-09-18T06:41:30;6.20;;;3.10;;
9481;SDS011;4779;48.062;11.672;2023-09-18T06:43:57;4.53;;;2.60;;
9481;SDS011;4779;48.062;11.672;2023-09-18T06:46:25;5.05;;;3.50;;
9481;SDS011;4779;48.062;11.672;2023-09-18T06:48:53;5.93;;;3.38;;
9481;SDS011;4779;48.062;11.672;2023-09-18T06:51:28;3.95;;;2.65;;
9481;SDS011;4779;48.062;11.672;2023-09-18T06:53:55;7.07;;;3.78;;
9481;SDS011;4779;48.062;11.672;2023-09-18T06:56:22;6.05;;;3.15;;
9481;SDS011;4779;48.062;11.672;2023-09-18T06:58:52;7.90;;;3.45;;
9481;SDS011;4779;48.062;11.672;2023-09-18T07:01:23;8.48;;;3.78;;
9481;SDS011;4779;48.062;11.672;2023-09-18T07:03:52;6.55;;;3.65;;
9481;SDS011;4779;48.062;11.672;2023-09-18T07:06:19;8.75;;;3.15;;
9481;SDS011;4779;48.062;11.672;2023-09-18T07:08:47;12.43;;;4.18;;
9481;SDS011;4779;48.062;11.672;2023-09-18T07:11:22;5.65;;;3.60;;
9481;SDS011;4779;48.062;11.672;2023-09-18T07:13:52;8.23;;;3.42;;
9481;SDS011;4779;48.062;11.672;2023-09-18T07:16:19;4.70;;;3.30;;
9481;SDS011;4779;48.062;11.672;2023-09-18T07:18:46;6.30;;;3.35;;
9481;SDS011;4779;48.062;11.672;2023-09-18T07:21:18;8.98;;;4.13;;
9481;SDS011;4779;48.062;11.672;2023-09-18T07:23:45;5.82;;;3.60;;
9481;SDS011;4779;48.062;11.672;2023-09-18T07:26:22;5.68;;;3.33;;
9481;SDS011;4779;48.062;11.672;2023-09-18T07:28:49;5.10;;;3.28;;
9481;SDS011;4779;48.062;11.672;2023-09-18T07:31:16;7.53;;;3.72;;
9481;SDS011;4779;48.062;11.672;2023-09-18T07:33:43;6.78;;;3.70;;
9481;SDS011;4779;48.062;11.672;2023-09-18T07:36:10;4.97;;;3.20;;
9481;SDS011;4779;48.062;11.672;2023-09-18T07:38:41;7.70;;;3.80;;
9481;SDS011;4779;48.062;11.672;2023-09-18T07:41:14;7.25;;;3.60;;
9481;SDS011;4779;48.062;11.672;2023-09-18T07:43:41;5.70;;;3.45;;
9481;SDS011;4779;48.062;11.672;2023-09-18T07:46:11;5.80;;;3.30;;
9481;SDS011;4779;48.062;11.672;2023-09-18T07:48:38;6.20;;;3.50;;
9481;SDS011;4779;48.062;11.672;2023-09-18T07:51:11;8.93;;;3.40;;
9481;SDS011;4779;48.062;11.672;2023-09-18T07:53:39;8.57;;;3.60;;
9481;SDS011;4779;48.062;11.672;2023-09-18T07:56:07;6.70;;;3.45;;
9481;SDS011;4779;48.062;11.672;2023-09-18T07:58:34;8.13;;;3.53;;
9481;SDS011;4779;48.062;11.672;2023-09-18T08:01:03;7.15;;;2.92;;
9481;SDS011;4779;48.062;11.672;2023-09-18T08:03:31;5.50;;;3.10;;
9481;SDS011;4779;48.062;11.672;2023-09-18T08:05:58;6.40;;;3.03;;
9481;SDS011;4779;48.062;11.672;2023-09-18T08:08:28;6.07;;;3.20;;
9481;SDS011;4779;48.062;11.672;2023-09-18T08:10:58;6.90;;;3.40;;
9481;SDS011;4779;48.062;11.672;2023-09-18T08:13:33;6.53;;;3.47;;
9481;SDS011;4779;48.062;11.672;2023-09-18T08:16:00;5.25;;;3.45;;
9481;SDS011;4779;48.062;11.672;2023-09-18T08:18:28;7.13;;;3.25;;
9481;SDS011;4779;48.062;11.672;2023-09-18T08:20:59;7.25;;;4.07;;
9481;SDS011;4779;48.062;11.672;2023-09-18T08:23:29;6.03;;;3.40;;
9481;SDS011;4779;48.062;11.672;2023-09-18T08:26:01;8.82;;;3.58;;
9481;SDS011;4779;48.062;11.672;2023-09-18T08:28:29;7.18;;;3.35;;
9481;SDS011;4779;48.062;11.672;2023-09-18T08:30:58;6.72;;;3.63;;
9481;SDS011;4779;48.062;11.672;2023-09-18T08:33:26;7.07;;;3.63;;
9481;SDS011;4779;48.062;11.672;2023-09-18T08:35:53;7.72;;;3.75;;
9481;SDS011;4779;48.062;11.672;2023-09-18T08:38:23;8.63;;;3.17;;
9481;SDS011;4779;48.062;11.672;2023-09-18T08:40:53;7.05;;;3.20;;
9481;SDS011;4779;48.062;11.672;2023-09-18T08:43:22;7.97;;;3.22;;
9481;SDS011;4779;48.062;11.672;2023-09-18T08:45:51;5.57;;;3.38;;
9481;SDS011;4779;48.062;11.672;2023-09-18T08:48:19;5.78;;;3.30;;
9481;SDS011;4779;48.062;11.672;2023-09-18T08:50:47;6.03;;;3.35;;
9481;SDS011;4779;48.062;11.672;2023-09-18T08:53:14;6.78;;;3.05;;
9481;SDS011;4779;48.062;11.672;2023-09-18T08:55:41;4.68;;;3.45;;
9481;SDS011;4779;48.062;11.672;2023-09-18T08:58:12;6.10;;;3.20;;
9481;SDS011;4779;48.062;11.672;2023-09-18T09:00:41;6.10;;;3.50;;
9481;SDS011;4779;48.062;11.672;2023-09-18T09:03:08;6.82;;;3.33;;
9481;SDS011;4779;48.062;11.672;2023-09-18T09:05:36;6.75;;;3.13;;
9481;SDS011;4779;48.062;11.672;2023-09-18T09:08:03;4.72;;;3.40;;
9481;SDS011;4779;48.062;11.672;2023-09-18T09:10:30;7.32;;;3.47;;
9481;SDS011;4779;48.062;11.672;2023-09-18T09:12:58;5.88;;;3.15;;
9481;SDS011;4779;48.062;11.672;2023-09-18T09:15:32;6.45;;;3.10;;
9481;SDS011;4779;48.062;11.672;2023-09-18T09:18:12;7.75;;;3.13;;
9481;SDS011;4779;48.062;11.672;2023-09-18T09:20:52;5.45;;;3.17;;
9481;SDS011;4779;48.062;11.672;2023-09-18T09:23:22;6.78;;;3.50;;
9481;SDS011;4779;48.062;11.672;2023-09-18T09:25:50;6.78;;;3.22;;
9481;SDS011;4779;48.062;11.672;2023-09-18T09:28:28;6.47;;;3.28;;
9481;SDS011;4779;48.062;11.672;2023-09-18T09:30:59;4.72;;;3.00;;
9481;SDS011;4779;48.062;11.672;2023-09-18T09:33:30;6.28;;;3.22;;
9481;SDS011;4779;48.062;11.672;2023-09-18T09:35:57;6.80;;;3.40;;
9481;SDS011;4779;48.062;11.672;2023-09-18T09:38:28;6.25;;;2.92;;
9481;SDS011;4779;48.062;11.672;2023-09-18T09:40:56;6.22;;;3.00;;
9481;SDS011;4779;48.062;11.672;2023-09-18T09:43:25;6.57;;;3.28;;
9481;SDS011;4779;48.062;11.672;2023-09-18T09:45:56;5.85;;;3.30;;
9481;SDS011;4779;48.062;11.672;2023-09-18T09:48:24;5.80;;;2.90;;
9481;SDS011;4779;48.062;11.672;2023-09-18T09:50:57;7.25;;;3.13;;
9481;SDS011;4779;48.062;11.672;2023-09-18T09:53:44;5.70;;;3.50;;
9481;SDS011;4779;48.062;11.672;2023-09-18T09:56:13;7.15;;;3.25;;
9481;SDS011;4779;48.062;11.672;2023-09-18T09:59:05;6.45;;;3.38;;
9481;SDS011;4779;48.062;11.672;2023-09-18T10:01:33;7.45;;;3.45;;
9481;SDS011;4779;48.062;11.672;2023-09-18T10:04:01;6.07;;;3.10;;
9481;SDS011;4779;48.062;11.672;2023-09-18T10:06:33;6.82;;;3.17;;
9481;SDS011;4779;48.062;11.672;2023-09-18T10:09:01;7.35;;;3.40;;
9481;SDS011;4779;48.062;11.672;2023-09-18T10:11:30;6.57;;;3.10;;
9481;SDS011;4779;48.062;11.672;2023-09-18T10:14:03;7.28;;;3.45;;
9481;SDS011;4779;48.062;11.672;2023-09-18T10:16:36;7.50;;;3.38;;
9481;SDS011;4779;48.062;11.672;2023-09-18T10:19:06;8.27;;;3.25;;
9481;SDS011;4779;48.062;11.672;2023-09-18T10:21:44;5.97;;;3.22;;
9481;SDS011;4779;48.062;11.672;2023-09-18T10:24:19;7.78;;;3.45;;
9481;SDS011;4779;48.062;11.672;2023-09-18T10:26:50;5.75;;;3.08;;
9481;SDS011;4779;48.062;11.672;2023-09-18T10:29:28;7.60;;;2.90;;
9481;SDS011;4779;48.062;11.672;2023-09-18T10:31:56;5.28;;;3.35;;
9481;SDS011;4779;48.062;11.672;2023-09-18T10:34:24;9.38;;;3.70;;
9481;SDS011;4779;48.062;11.672;2023-09-18T10:36:53;6.78;;;3.20;;
9481;SDS011;4779;48.062;11.672;2023-09-18T10:39:21;6.78;;;3.08;;
9481;SDS011;4779;48.062;11.672;2023-09-18T10:41:55;8.85;;;3.00;;
9481;SDS011;4779;48.062;11.672;2023-09-18T10:44:27;5.32;;;2.95;;
9481;SDS011;4779;48.062;11.672;2023-09-18T10:46:55;7.00;;;3.03;;
9481;SDS011;4779;48.062;11.672;2023-09-18T10:49:25;8.25;;;3.10;;
9481;SDS011;4779;48.062;11.672;2023-09-18T10:51:54;6.18;;;3.03;;
9481;SDS011;4779;48.062;11.672;2023-09-18T10:54:23;9.73;;;3.13;;
9481;SDS011;4779;48.062;11.672;2023-09-18T10:56:52;6.88;;;2.80;;
9481;SDS011;4779;48.062;11.672;2023-09-18T10:59:19;7.30;;;3.28;;
9481;SDS011;4779;48.062;11.672;2023-09-18T11:01:48;8.73;;;3.63;;
9481;SDS011;4779;48.062;11.672;2023-09-18T11:04:17;7.15;;;3.13;;
9481;SDS011;4779;48.062;11.672;2023-09-18T11:07:03;5.78;;;2.90;;
9481;SDS011;4779;48.062;11.672;2023-09-18T11:09:41;7.03;;;3.00;;
9481;SDS011;4779;48.062;11.672;2023-09-18T11:12:10;6.85;;;3.13;;
9481;SDS011;4779;48.062;11.672;2023-09-18T11:14:43;10.15;;;3.55;;
9481;SDS011;4779;48.062;11.672;2023-09-18T11:17:27;9.65;;;3.33;;
9481;SDS011;4779;48.062;11.672;2023-09-18T11:20:01;7.90;;;3.17;;
9481;SDS011;4779;48.062;11.672;2023-09-18T11:22:36;10.75;;;3.70;;
9481;SDS011;4779;48.062;11.672;2023-09-18T11:27:59;8.43;;;3.33;;
9481;SDS011;4779;48.062;11.672;2023-09-18T11:30:27;9.88;;;4.10;;
9481;SDS011;4779;48.062;11.672;2023-09-18T11:33:00;10.68;;;3.95;;
9481;SDS011;4779;48.062;11.672;2023-09-18T11:35:28;7.53;;;3.58;;
9481;SDS011;4779;48.062;11.672;2023-09-18T11:38:07;9.32;;;3.97;;
9481;SDS011;4779;48.062;11.672;2023-09-18T11:40:35;9.90;;;3.92;;
9481;SDS011;4779;48.062;11.672;2023-09-18T11:43:25;10.25;;;4.30;;
9481;SDS011;4779;48.062;11.672;2023-09-18T11:45:58;6.60;;;3.75;;
9481;SDS011;4779;48.062;11.672;2023-09-18T11:48:29;7.88;;;3.70;;
9481;SDS011;4779;48.062;11.672;2023-09-18T11:50:59;8.80;;;3.63;;
9481;SDS011;4779;48.062;11.672;2023-09-18T11:53:32;7.15;;;2.97;;
9481;SDS011;4779;48.062;11.672;2023-09-18T11:56:02;4.30;;;2.30;;
9481;SDS011;4779;48.062;11.672;2023-09-18T11:58:29;5.25;;;2.45;;
9481;SDS011;4779;48.062;11.672;2023-09-18T12:00:56;7.35;;;2.30;;
9481;SDS011;4779;48.062;11.672;2023-09-18T12:03:38;5.82;;;2.30;;
9481;SDS011;4779;48.062;11.672;2023-09-18T12:06:05;4.60;;;1.90;;
9481;SDS011;4779;48.062;11.672;2023-09-18T12:08:36;4.88;;;2.10;;
9481;SDS011;4779;48.062;11.672;2023-09-18T12:11:04;7.00;;;2.25;;
9481;SDS011;4779;48.062;11.672;2023-09-18T12:13:32;4.40;;;2.15;;
9481;SDS011;4779;48.062;11.672;2023-09-18T12:15:59;4.10;;;1.52;;
9481;SDS011;4779;48.062;11.672;2023-09-18T12:18:31;3.53;;;1.95;;
9481;SDS011;4779;48.062;11.672;2023-09-18T12:21:00;4.85;;;2.22;;
9481;SDS011;4779;48.062;11.672;2023-09-18T12:23:38;2.60;;;1.40;;
9481;SDS011;4779;48.062;11.672;2023-09-18T12:26:05;4.55;;;1.48;;
9481;SDS011;4779;48.062;11.672;2023-09-18T12:28:33;5.25;;;1.60;;
9481;SDS011;4779;48.062;11.672;2023-09-18T12:31:02;2.70;;;1.35;;
9481;SDS011;4779;48.062;11.672;2023-09-18T12:33:33;3.70;;;1.33;;
9481;SDS011;4779;48.062;11.672;2023-09-18T12:36:02;3.92;;;1.58;;
9481;SDS011;4779;48.062;11.672;2023-09-18T12:38:30;4.38;;;1.63;;
9481;SDS011;4779;48.062;11.672;2023-09-18T12:40:59;3.00;;;1.50;;
9481;SDS011;4779;48.062;11.672;2023-09-18T12:43:34;2.83;;;1.73;;
9481;SDS011;4779;48.062;11.672;2023-09-18T12:46:04;3.38;;;1.30;;
9481;SDS011;4779;48.062;11.672;2023-09-18T12:48:32;4.10;;;1.08;;
9481;SDS011;4779;48.062;11.672;2023-09-18T12:51:03;4.35;;;1.60;;
9481;SDS011;4779;48.062;11.672;2023-09-18T12:53:31;5.00;;;1.65;;
9481;SDS011;4779;48.062;11.672;2023-09-18T12:56:06;2.67;;;1.52;;
9481;SDS011;4779;48.062;11.672;2023-09-18T12:58:35;2.60;;;1.17;;
9481;SDS011;4779;48.062;11.672;2023-09-18T13:01:05;3.28;;;1.25;;
9481;SDS011;4779;48.062;11.672;2023-09-18T13:03:35;2.67;;;1.20;;
9481;SDS011;4779;48.062;11.672;2023-09-18T13:06:08;2.92;;;1.20;;
9481;SDS011;4779;48.062;11.672;2023-09-18T13:08:42;2.92;;;1.20;;
9481;SDS011;4779;48.062;11.672;2023-09-18T13:11:11;4.30;;;1.08;;
9481;SDS011;4779;48.062;11.672;2023-09-18T13:13:41;3.70;;;1.20;;
9481;SDS011;4779;48.062;11.672;2023-09-18T13:16:09;1.17;;;0.98;;
9481;SDS011;4779;48.062;11.672;2023-09-18T13:18:37;3.45;;;1.02;;
9481;SDS011;4779;48.062;11.672;2023-09-18T13:21:09;1.27;;;1.00;;
9481;SDS011;4779;48.062;11.672;2023-09-18T13:23:36;1.52;;;0.95;;
9481;SDS011;4779;48.062;11.672;2023-09-18T13:26:05;2.30;;;1.00;;
9481;SDS011;4779;48.062;11.672;2023-09-18T13:28:35;3.15;;;1.10;;
9481;SDS011;4779;48.062;11.672;2023-09-18T13:31:05;2.05;;;0.82;;
9481;SDS011;4779;48.062;11.672;2023-09-18T13:33:33;2.95;;;1.08;;
9481;SDS011;4779;48.062;11.672;2023-09-18T13:36:04;2.92;;;1.17;;
9481;SDS011;4779;48.062;11.672;2023-09-18T13:38:31;1.70;;;1.20;;
9481;SDS011;4779;48.062;11.672;2023-09-18T13:40:58;1.27;;;0.88;;
9481;SDS011;4779;48.062;11.672;2023-09-18T13:43:25;2.90;;;1.20;;
9481;SDS011;4779;48.062;11.672;2023-09-18T13:45:54;3.45;;;1.38;;
9481;SDS011;4779;48.062;11.672;2023-09-18T13:48:24;3.15;;;1.40;;
9481;SDS011;4779;48.062;11.672;2023-09-18T13:50:51;1.17;;;1.08;;
9481;SDS011;4779;48.062;11.672;2023-09-18T13:53:18;1.50;;;0.90;;
9481;SDS011;4779;48.062;11.672;2023-09-18T13:55:45;2.88;;;1.20;;
9481;SDS011;4779;48.062;11.672;2023-09-18T13:58:15;2.28;;;1.08;;
9481;SDS011;4779;48.062;11.672;2023-09-18T14:00:42;2.10;;;1.00;;
9481;SDS011;4779;48.062;11.672;2023-09-18T14:03:10;2.95;;;1.00;;
9481;SDS011;4779;48.062;11.672;2023-09-18T14:05:40;2.10;;;0.90;;
9481;SDS011;4779;48.062;11.672;2023-09-18T14:08:07;1.88;;;1.13;;
9481;SDS011;4779;48.062;11.672;2023-09-18T14:10:34;1.02;;;0.93;;
9481;SDS011;4779;48.062;11.672;2023-09-18T14:13:04;1.40;;;1.13;;
9481;SDS011;4779;48.062;11.672;2023-09-18T14:15:31;2.97;;;1.05;;
9481;SDS011;4779;48.062;11.672;2023-09-18T14:17:58;1.58;;;1.13;;
9481;SDS011;4779;48.062;11.672;2023-09-18T14:20:26;2.83;;;1.30;;
9481;SDS011;4779;48.062;11.672;2023-09-18T14:22:53;2.55;;;1.30;;
9481;SDS011;4779;48.062;11.672;2023-09-18T14:25:20;0.80;;;0.80;;
9481;SDS011;4779;48.062;11.672;2023-09-18T14:27:47;2.08;;;1.20;;
9481;SDS011;4779;48.062;11.672;2023-09-18T14:30:15;1.67;;;1.02;;
9481;SDS011;4779;48.062;11.672;2023-09-18T14:32:42;1.40;;;1.00;;
9481;SDS011;4779;48.062;11.672;2023-09-18T14:35:09;1.00;;;0.80;;
9481;SDS011;4779;48.062;11.672;2023-09-18T14:37:37;2.00;;;0.90;;
9481;SDS011;4779;48.062;11.672;2023-09-18T14:40:05;1.17;;;0.82;;
9481;SDS011;4779;48.062;11.672;2023-09-18T14:42:36;1.58;;;0.80;;
9481;SDS011;4779;48.062;11.672;2023-09-18T14:45:04;1.58;;;0.80;;
9481;SDS011;4779;48.062;11.672;2023-09-18T14:47:31;1.20;;;0.88;;
9481;SDS011;4779;48.062;11.672;2023-09-18T14:49:58;0.98;;;0.73;;
9481;SDS011;4779;48.062;11.672;2023-09-18T14:52:26;2.45;;;0.85;;
9481;SDS011;4779;48.062;11.672;2023-09-18T14:54:55;1.25;;;0.82;;
9481;SDS011;4779;48.062;11.672;2023-09-18T14:57:22;1.63;;;1.05;;
9481;SDS011;4779;48.062;11.672;2023-09-18T14:59:49;3.28;;;1.13;;
9481;SDS011;4779;48.062;11.672;2023-09-18T15:02:16;2.40;;;1.00;;
9481;SDS011;4779;48.062;11.672;2023-09-18T15:04:43;1.70;;;0.80;;
9481;SDS011;4779;48.062;11.672;2023-09-18T15:07:10;2.85;;;0.80;;
9481;SDS011;4779;48.062;11.672;2023-09-18T15:09:38;1.85;;;0.90;;
9481;SDS011;4779;48.062;11.672;2023-09-18T15:12:07;1.60;;;0.88;;
9481;SDS011;4779;48.062;11.672;2023-09-18T15:14:39;1.63;;;0.98;;